createdAt,value
2022-08-12T00:02:45.090Z,4.20
2022-08-12T00:05:32.009Z,4.30
2022-08-12T00:08:17.181Z,4.13
2022-08-12T00:11:14.092Z,3.93
2022-08-12T00:13:59.369Z,4.00
2022-08-12T00:16:48.747Z,4.30
2022-08-12T00:19:34.454Z,4.17
2022-08-12T00:22:19.976Z,4.30
2022-08-12T00:25:05.731Z,4.90
2022-08-12T00:27:51.557Z,4.23
2022-08-12T00:30:36.860Z,4.57
2022-08-12T00:33:25.636Z,4.00
2022-08-12T00:36:35.356Z,4.40
2022-08-12T00:39:21.927Z,4.37
2022-08-12T00:42:08.787Z,4.50
2022-08-12T00:44:35.527Z,4.40
2022-08-12T00:47:03.469Z,4.73
2022-08-12T00:49:31.282Z,3.80
2022-08-12T00:52:06.822Z,3.97
2022-08-12T00:54:44.394Z,4.30
2022-08-12T00:57:17.365Z,4.30
2022-08-12T00:59:50.005Z,4.30
2022-08-12T01:02:23.668Z,4.40
2022-08-12T01:05:29.217Z,3.90
2022-08-12T01:08:15.020Z,4.13
2022-08-12T01:11:02.190Z,4.23
2022-08-12T01:13:31.299Z,4.23
2022-08-12T01:16:01.210Z,4.20
2022-08-12T01:18:30.167Z,4.10
2022-08-12T01:21:09.217Z,4.00
2022-08-12T01:23:45.015Z,4.40
2022-08-12T01:26:17.156Z,4.00
2022-08-12T01:28:45.731Z,3.80
2022-08-12T01:31:16.254Z,4.13
2022-08-12T01:34:28.642Z,4.10
2022-08-12T01:37:02.091Z,4.30
2022-08-12T01:40:34.204Z,4.07
2022-08-12T01:42:39.843Z,4.50
2022-08-12T01:45:07.153Z,4.10
2022-08-12T01:47:58.710Z,4.50
2022-08-12T01:50:33.242Z,3.93
2022-08-12T01:53:06.442Z,3.93
2022-08-12T01:55:35.354Z,4.00
2022-08-12T01:58:54.348Z,3.83
2022-08-12T02:01:24.541Z,4.00
2022-08-12T02:04:33.434Z,4.03
2022-08-12T02:07:23.027Z,4.03
2022-08-12T02:10:11.185Z,4.10
2022-08-12T02:13:48.355Z,4.50
2022-08-12T02:16:51.159Z,4.20
2022-08-12T02:19:22.255Z,3.83
2022-08-12T02:22:25.117Z,4.30
2022-08-12T02:24:54.188Z,4.00
2022-08-12T02:27:22.108Z,4.10
2022-08-12T02:29:49.310Z,4.60
2022-08-12T02:32:16.797Z,4.70
2022-08-12T02:34:44.803Z,3.90
2022-08-12T02:37:15.540Z,4.60
2022-08-12T02:39:48.458Z,4.23
2022-08-12T02:42:16.470Z,3.83
2022-08-12T02:44:45.837Z,4.63
2022-08-12T02:47:58.468Z,4.30
2022-08-12T02:50:05.778Z,3.90
2022-08-12T02:52:34.115Z,4.37
2022-08-12T02:55:10.635Z,4.70
2022-08-12T02:57:37.456Z,4.30
2022-08-12T03:00:06.107Z,4.73
2022-08-12T03:02:33.615Z,3.93
2022-08-12T03:05:03.437Z,4.33
2022-08-12T03:07:56.187Z,4.10
2022-08-12T03:10:36.650Z,4.83
2022-08-12T03:13:04.630Z,4.30
2022-08-12T03:15:31.541Z,4.50
2022-08-12T03:18:24.891Z,4.10
2022-08-12T03:20:56.274Z,4.57
2022-08-12T03:23:30.114Z,4.20
2022-08-12T03:26:00.666Z,4.40
2022-08-12T03:28:49.650Z,4.57
2022-08-12T03:31:22.253Z,4.30
2022-08-12T03:34:02.020Z,4.23
2022-08-12T03:36:32.121Z,4.53
2022-08-12T03:39:18.884Z,4.30
2022-08-12T03:41:54.886Z,4.70
2022-08-12T03:44:46.566Z,4.23
2022-08-12T03:47:49.670Z,3.90
2022-08-12T03:50:35.954Z,4.40
2022-08-12T03:53:24.280Z,3.97
2022-08-12T03:56:10.181Z,4.30
2022-08-12T03:58:56.145Z,4.40
2022-08-12T04:01:25.996Z,4.50
2022-08-12T04:03:52.960Z,4.30
2022-08-12T04:06:34.414Z,3.93
2022-08-12T04:09:15.941Z,5.20
2022-08-12T04:12:03.144Z,4.80
2022-08-12T04:14:30.168Z,4.67
2022-08-12T04:16:57.402Z,4.57
2022-08-12T04:19:26.077Z,4.37
2022-08-12T04:22:02.429Z,4.23
2022-08-12T04:24:38.056Z,4.03
2022-08-12T04:27:11.780Z,4.60
2022-08-12T04:30:29.148Z,4.97
2022-08-12T04:32:26.329Z,4.47
2022-08-12T04:34:53.947Z,4.80
2022-08-12T04:37:20.755Z,4.30
2022-08-12T04:39:48.584Z,4.00
2022-08-12T04:42:16.146Z,4.40
2022-08-12T04:44:43.330Z,4.20
2022-08-12T04:47:15.303Z,4.60
2022-08-12T04:49:45.589Z,4.57
2022-08-12T04:52:12.821Z,4.80
2022-08-12T04:54:39.697Z,4.60
2022-08-12T04:57:09.560Z,4.50
2022-08-12T04:59:48.467Z,4.50
2022-08-12T05:02:22.864Z,4.60
2022-08-12T05:04:51.662Z,4.27
2022-08-12T05:07:19.432Z,4.27
2022-08-12T05:10:00.523Z,4.27
2022-08-12T05:12:37.504Z,4.20
2022-08-12T05:15:21.243Z,4.60
2022-08-12T05:17:53.215Z,4.13
2022-08-12T05:20:20.735Z,4.43
2022-08-12T05:22:47.494Z,4.37
2022-08-12T05:25:15.868Z,4.37
2022-08-12T05:27:58.762Z,4.03
2022-08-12T05:30:30.882Z,4.10
2022-08-12T05:33:00.264Z,3.80
2022-08-12T05:35:28.011Z,4.40
2022-08-12T05:38:14.770Z,3.80
2022-08-12T05:40:41.952Z,4.30
2022-08-12T05:43:08.909Z,4.40
2022-08-12T05:45:35.643Z,3.90
2022-08-12T05:48:02.779Z,4.27
2022-08-12T05:50:29.586Z,4.00
2022-08-12T05:52:56.301Z,4.17
2022-08-12T05:55:25.843Z,3.70
2022-08-12T05:57:55.406Z,3.93
2022-08-12T06:00:26.189Z,4.30
2022-08-12T06:03:12.019Z,4.10
2022-08-12T06:05:52.695Z,4.23
2022-08-12T06:08:23.097Z,4.10
2022-08-12T06:10:50.387Z,4.63
2022-08-12T06:13:28.713Z,4.47
2022-08-12T06:16:09.858Z,4.40
2022-08-12T06:18:39.967Z,4.70
2022-08-12T06:21:12.081Z,5.07
2022-08-12T06:23:42.638Z,4.97
2022-08-12T06:26:12.696Z,4.63
2022-08-12T06:28:40.049Z,5.30
2022-08-12T06:31:25.375Z,4.90
2022-08-12T06:33:57.825Z,5.17
2022-08-12T06:36:29.964Z,4.40
2022-08-12T06:39:00.308Z,4.53
2022-08-12T06:42:31.054Z,3.90
2022-08-12T06:44:32.737Z,3.83
2022-08-12T06:46:59.801Z,4.63
2022-08-12T06:49:36.685Z,4.70
2022-08-12T06:52:04.872Z,4.53
2022-08-12T06:54:33.222Z,4.40
2022-08-12T06:57:57.110Z,4.20
2022-08-12T06:59:47.451Z,4.90
2022-08-12T07:02:14.135Z,4.30
2022-08-12T07:04:40.870Z,4.73
2022-08-12T07:07:08.925Z,4.37
2022-08-12T07:10:01.194Z,4.67
2022-08-12T07:12:23.469Z,4.70
2022-08-12T07:14:53.818Z,4.70
2022-08-12T07:17:20.445Z,4.53
2022-08-12T07:20:35.974Z,4.67
2022-08-12T07:36:12.953Z,4.80
2022-08-12T07:38:46.531Z,4.60
2022-08-12T07:41:39.082Z,4.20
2022-08-12T07:44:08.685Z,4.40
2022-08-12T07:46:49.542Z,4.70
2022-08-12T07:49:34.684Z,4.80
2022-08-12T07:52:21.350Z,3.83
2022-08-12T07:54:51.304Z,3.90
2022-08-12T07:57:18.061Z,3.80
2022-08-12T07:59:44.737Z,4.20
2022-08-12T08:02:26.355Z,4.30
2022-08-12T08:04:56.557Z,3.60
2022-08-12T08:07:25.672Z,4.37
2022-08-12T08:09:59.898Z,3.77
2022-08-12T08:12:46.355Z,3.70
2022-08-12T08:15:14.983Z,3.90
2022-08-12T08:18:05.974Z,3.70
2022-08-12T08:20:35.336Z,3.50
2022-08-12T08:23:08.137Z,3.60
2022-08-12T08:25:38.862Z,4.00
2022-08-12T08:28:27.410Z,3.90
2022-08-12T08:31:05.423Z,3.60
2022-08-12T08:34:09.140Z,3.40
2022-08-12T08:36:23.779Z,3.53
2022-08-12T08:38:57.860Z,3.10
2022-08-12T08:45:24.430Z,3.10
2022-08-12T08:47:51.919Z,3.50
2022-08-12T08:50:18.758Z,3.33
2022-08-12T08:52:46.000Z,3.13
2022-08-12T08:55:14.459Z,3.40
2022-08-12T08:57:47.658Z,3.30
2022-08-12T09:00:16.904Z,3.53
2022-08-12T09:02:49.128Z,3.43
2022-08-12T09:05:26.018Z,3.07
2022-08-12T09:10:47.286Z,3.60
2022-08-12T09:13:29.108Z,3.30
2022-08-12T09:16:20.407Z,3.20
2022-08-12T09:18:57.371Z,3.07
2022-08-12T09:21:24.970Z,2.77
2022-08-12T09:24:06.099Z,2.83
2022-08-12T09:30:10.418Z,3.30
2022-08-12T09:32:56.736Z,2.90
2022-08-12T09:35:42.977Z,3.13
2022-08-12T09:38:28.970Z,3.00
2022-08-12T09:42:33.688Z,3.00
2022-08-12T09:44:39.454Z,2.97
2022-08-12T09:47:10.531Z,2.97
2022-08-12T09:49:57.948Z,3.17
2022-08-12T09:52:32.014Z,3.27
2022-08-12T09:55:02.455Z,2.90
2022-08-12T09:58:07.441Z,2.73
2022-08-12T10:01:02.864Z,3.17
2022-08-12T10:04:12.124Z,2.93
2022-08-12T10:06:57.975Z,3.17
2022-08-12T10:09:57.061Z,3.40
2022-08-12T10:13:11.673Z,2.90
2022-08-12T10:16:02.254Z,3.40
2022-08-12T10:18:26.542Z,2.93
2022-08-12T10:20:54.317Z,3.00
2022-08-12T10:23:39.317Z,3.40
2022-08-12T10:26:38.186Z,2.87
2022-08-12T10:30:39.036Z,2.80
2022-08-12T10:33:02.248Z,2.80
2022-08-12T10:35:15.294Z,2.60
2022-08-12T10:38:33.460Z,3.13
2022-08-12T10:40:33.516Z,2.80
2022-08-12T10:43:19.918Z,2.73
2022-08-12T10:45:49.534Z,3.00
2022-08-12T10:48:33.625Z,2.87
2022-08-12T10:52:02.730Z,2.90
2022-08-12T10:54:00.404Z,3.00
2022-08-12T10:59:17.917Z,2.70
2022-08-12T11:04:31.478Z,3.07
2022-08-12T11:04:52.680Z,3.07
2022-08-12T11:08:37.230Z,3.13
2022-08-12T11:10:18.949Z,2.73
2022-08-12T11:13:00.655Z,2.77
2022-08-12T11:16:04.044Z,2.57
2022-08-12T11:18:18.703Z,3.07
2022-08-12T11:20:48.262Z,2.77
2022-08-12T11:23:26.061Z,2.60
2022-08-12T11:26:05.927Z,2.90
2022-08-12T11:28:34.420Z,2.67
2022-08-12T11:31:03.129Z,2.83
2022-08-12T11:34:05.705Z,3.00
2022-08-12T11:36:17.457Z,2.63
2022-08-12T11:38:50.500Z,2.87
2022-08-12T11:41:31.380Z,2.70
2022-08-12T11:44:30.760Z,2.60
2022-08-12T11:46:54.578Z,2.87
2022-08-12T11:49:31.719Z,3.00
2022-08-12T11:52:03.481Z,2.80
2022-08-12T11:54:31.506Z,3.00
2022-08-12T11:58:40.522Z,2.50
2022-08-12T12:02:57.657Z,3.03
2022-08-12T12:05:28.419Z,2.60
2022-08-12T12:08:38.516Z,2.87
2022-08-12T12:10:57.736Z,2.83
2022-08-12T12:14:07.500Z,3.13
2022-08-12T12:16:21.663Z,3.00
2022-08-12T12:18:49.190Z,2.90
2022-08-12T12:21:18.840Z,2.90
2022-08-12T12:24:06.634Z,3.20
2022-08-12T12:26:35.473Z,3.00
2022-08-12T12:29:03.366Z,2.93
2022-08-12T12:32:09.367Z,3.10
2022-08-12T12:34:30.423Z,2.80
2022-08-12T12:36:58.059Z,2.93
2022-08-12T12:39:27.728Z,3.10
2022-08-12T12:42:42.800Z,2.83
2022-08-12T12:44:42.064Z,2.83
2022-08-12T12:47:29.027Z,2.90
2022-08-12T12:50:00.102Z,2.70
2022-08-12T12:52:27.204Z,2.67
2022-08-12T12:54:55.741Z,2.60
2022-08-12T12:57:59.467Z,2.70
2022-08-12T13:00:17.428Z,2.67
2022-08-12T13:02:53.688Z,2.70
2022-08-12T13:05:28.047Z,2.53
2022-08-12T13:08:00.757Z,2.90
2022-08-12T13:10:36.994Z,2.43
2022-08-12T13:14:06.885Z,2.60
2022-08-12T13:15:59.421Z,2.60
2022-08-12T13:18:28.764Z,2.87
2022-08-12T13:21:02.969Z,2.40
2022-08-12T13:23:36.814Z,2.50
2022-08-12T13:26:04.965Z,2.50
2022-08-12T13:28:31.810Z,2.70
2022-08-12T13:31:06.528Z,2.60
2022-08-12T13:34:31.829Z,2.40
2022-08-12T13:36:21.835Z,2.23
2022-08-12T13:38:54.615Z,2.47
2022-08-12T13:41:33.474Z,2.30
2022-08-12T13:44:06.677Z,2.30
2022-08-12T13:46:38.791Z,2.43
2022-08-12T13:49:11.520Z,2.33
2022-08-12T13:51:48.306Z,2.30
2022-08-12T13:54:22.267Z,2.50
2022-08-12T13:56:49.995Z,2.20
2022-08-12T13:59:20.388Z,2.30
2022-08-12T14:01:51.886Z,2.43
2022-08-12T14:04:19.131Z,2.50
2022-08-12T14:06:51.367Z,2.30
2022-08-12T14:09:20.037Z,2.47
2022-08-12T14:11:58.851Z,2.40
2022-08-12T14:14:31.525Z,2.43
2022-08-12T14:17:05.503Z,2.90
2022-08-12T14:19:35.694Z,2.60
2022-08-12T14:22:10.320Z,2.43
2022-08-12T14:24:41.032Z,2.23
2022-08-12T14:27:10.127Z,2.40
2022-08-12T14:30:06.252Z,2.30
2022-08-12T14:32:35.349Z,3.07
2022-08-12T14:35:09.405Z,2.30
2022-08-12T14:37:56.444Z,2.60
2022-08-12T14:40:29.925Z,2.67
2022-08-12T14:42:58.286Z,2.30
2022-08-12T14:45:44.389Z,2.37
2022-08-12T14:48:16.207Z,2.30
2022-08-12T14:51:03.139Z,2.67
2022-08-12T14:59:56.945Z,2.50
2022-08-12T15:02:20.895Z,2.27
2022-08-12T15:04:54.715Z,2.40
2022-08-12T15:07:33.167Z,2.80
2022-08-12T15:10:10.827Z,2.40
2022-08-12T15:12:40.767Z,2.90
2022-08-12T15:15:10.266Z,2.40
2022-08-12T15:17:38.637Z,2.40
2022-08-12T15:20:31.790Z,2.47
2022-08-12T15:22:55.619Z,2.77
2022-08-12T15:25:22.718Z,2.77
2022-08-12T15:28:03.780Z,2.73
2022-08-12T15:30:34.100Z,2.60
2022-08-12T15:33:12.426Z,2.77
2022-08-12T15:35:51.981Z,2.40
2022-08-12T15:38:21.232Z,2.30
2022-08-12T15:40:50.089Z,2.63
2022-08-12T15:44:16.253Z,2.47
2022-08-12T15:46:06.333Z,2.37
2022-08-12T15:48:33.955Z,2.83
2022-08-12T15:51:06.424Z,2.60
2022-08-12T15:53:54.861Z,2.37
2022-08-12T15:56:29.030Z,2.70
2022-08-12T15:59:00.379Z,2.30
2022-08-12T16:01:35.141Z,2.23
2022-08-12T16:04:02.019Z,2.63
2022-08-12T16:07:00.585Z,2.40
2022-08-12T16:09:21.307Z,2.30
2022-08-12T16:11:48.770Z,2.40
2022-08-12T16:14:18.379Z,2.40
2022-08-12T16:16:48.489Z,2.40
2022-08-12T16:20:02.719Z,2.37
2022-08-12T16:22:07.138Z,2.43
2022-08-12T16:24:43.589Z,2.60
2022-08-12T16:27:11.047Z,2.03
2022-08-12T16:29:52.655Z,2.00
2022-08-12T16:32:23.137Z,2.23
2022-08-12T16:34:55.801Z,2.30
2022-08-12T16:37:33.088Z,2.47
2022-08-12T16:40:12.950Z,2.57
2022-08-12T16:42:42.159Z,2.50
2022-08-12T16:45:22.959Z,2.20
2022-08-12T16:48:00.594Z,2.40
2022-08-12T16:50:30.897Z,2.00
2022-08-12T16:52:59.862Z,2.20
2022-08-12T16:55:41.808Z,2.17
2022-08-12T16:58:28.028Z,2.30
2022-08-12T17:00:56.131Z,2.37
2022-08-12T17:03:29.162Z,2.27
2022-08-12T17:05:58.313Z,2.17
2022-08-12T17:08:28.942Z,2.03
2022-08-12T17:10:56.380Z,2.60
2022-08-12T17:13:26.204Z,2.10
2022-08-12T17:16:04.679Z,2.20
2022-08-12T17:18:42.524Z,2.53
2022-08-12T17:21:41.178Z,2.40
2022-08-12T17:24:05.759Z,2.37
2022-08-12T17:26:33.790Z,2.30
2022-08-12T17:29:00.490Z,2.40
2022-08-12T17:31:59.776Z,2.00
2022-08-12T17:34:36.389Z,2.00
2022-08-12T17:37:06.294Z,1.90
2022-08-12T17:40:06.650Z,2.20
2022-08-12T17:42:31.182Z,2.33
2022-08-12T17:45:01.929Z,1.83
2022-08-12T17:48:04.922Z,1.80
2022-08-12T17:50:38.728Z,2.10
2022-08-12T17:53:08.190Z,1.90
2022-08-12T17:55:47.489Z,2.00
2022-08-12T17:58:37.097Z,1.90
2022-08-12T18:01:05.946Z,1.80
2022-08-12T18:03:57.504Z,1.80
2022-08-12T18:06:28.017Z,1.63
2022-08-12T18:08:58.864Z,1.90
2022-08-12T18:12:03.748Z,1.60
2022-08-12T18:14:32.743Z,1.67
2022-08-12T18:17:08.343Z,1.80
2022-08-12T18:20:06.468Z,1.70
2022-08-12T18:22:39.434Z,1.60
2022-08-12T18:26:15.906Z,2.67
2022-08-12T18:28:15.607Z,1.90
2022-08-12T18:30:53.322Z,1.70
2022-08-12T18:33:25.054Z,1.80
2022-08-12T18:35:55.631Z,1.63
2022-08-12T18:38:25.263Z,1.60
2022-08-12T18:41:21.333Z,1.90
2022-08-12T18:44:02.521Z,1.60
2022-08-12T18:46:54.452Z,1.90
2022-08-12T18:49:30.761Z,2.60
2022-08-12T18:52:04.872Z,1.83
2022-08-12T18:54:37.470Z,2.23
2022-08-12T18:57:19.441Z,1.83
2022-08-12T19:00:01.712Z,2.00
2022-08-12T19:02:33.950Z,1.50
2022-08-12T19:05:09.961Z,2.00
2022-08-12T19:07:50.049Z,1.60
2022-08-12T19:10:28.576Z,1.67
2022-08-12T19:13:21.107Z,1.60
2022-08-12T19:15:53.357Z,1.50
2022-08-12T19:18:22.134Z,1.47
2022-08-12T19:20:50.593Z,1.80
2022-08-12T19:23:21.297Z,1.70
2022-08-12T19:26:01.134Z,1.63
2022-08-12T19:28:35.573Z,1.80
2022-08-12T19:31:57.822Z,1.67
2022-08-12T19:38:03.715Z,1.93
2022-08-12T19:40:32.743Z,1.80
2022-08-12T19:43:13.286Z,1.70
2022-08-12T19:45:51.449Z,1.60
2022-08-12T19:48:20.211Z,1.93
2022-08-12T19:50:50.649Z,1.60
2022-08-12T19:53:23.966Z,1.90
2022-08-12T19:55:53.093Z,1.80
2022-08-12T19:58:21.178Z,1.77
2022-08-12T20:00:53.256Z,1.60
2022-08-12T20:03:37.880Z,2.10
2022-08-12T20:06:16.029Z,1.83
2022-08-12T20:08:56.752Z,1.70
2022-08-12T20:12:13.982Z,1.90
2022-08-12T20:14:19.846Z,2.00
2022-08-12T20:16:54.296Z,1.93
2022-08-12T20:20:02.729Z,1.83
2022-08-12T20:22:24.583Z,1.73
2022-08-12T20:25:01.260Z,1.80
2022-08-12T20:28:03.075Z,1.90
2022-08-12T20:30:17.777Z,1.90
2022-08-12T20:32:55.996Z,1.97
2022-08-12T20:35:24.426Z,2.00
2022-08-12T20:38:06.812Z,1.80
2022-08-12T20:40:39.127Z,1.80
2022-08-12T20:43:06.588Z,2.07
2022-08-12T20:45:51.231Z,1.90
2022-08-12T20:48:24.185Z,2.00
2022-08-12T20:50:53.895Z,1.90
2022-08-12T20:53:33.195Z,2.13
2022-08-12T20:56:30.964Z,1.80
2022-08-12T20:59:01.162Z,1.90
2022-08-12T21:01:36.618Z,2.20
2022-08-12T21:04:32.640Z,1.83
2022-08-12T21:07:04.664Z,2.07
2022-08-12T21:09:40.622Z,2.00
2022-08-12T21:12:28.108Z,1.90
2022-08-12T21:15:00.774Z,1.87
2022-08-12T21:18:09.420Z,2.03
2022-08-12T21:20:32.685Z,2.10
2022-08-12T21:22:59.459Z,2.10
2022-08-12T21:25:44.526Z,2.00
2022-08-12T21:28:12.549Z,2.00
2022-08-12T21:31:11.007Z,1.90
2022-08-12T21:33:58.688Z,2.00
2022-08-12T21:36:34.973Z,2.30
2022-08-12T21:39:18.814Z,1.97
2022-08-12T21:41:54.913Z,1.90
2022-08-12T21:45:46.408Z,2.37
2022-08-12T21:47:23.031Z,2.10
2022-08-12T21:50:03.728Z,2.13
2022-08-12T21:52:59.410Z,2.00
2022-08-12T21:55:46.793Z,1.97
2022-08-12T21:58:21.165Z,1.80
2022-08-12T22:00:53.114Z,2.20
2022-08-12T22:07:18.786Z,2.17
2022-08-12T22:09:57.333Z,2.27
2022-08-12T22:12:45.648Z,2.27
2022-08-12T22:15:21.462Z,1.90
2022-08-12T22:17:57.622Z,2.00
2022-08-12T22:20:29.729Z,2.10
2022-08-12T22:23:21.719Z,2.20
2022-08-12T22:26:08.927Z,2.30
2022-08-12T22:29:29.978Z,2.30
2022-08-12T22:31:57.977Z,2.37
2022-08-12T22:34:34.372Z,2.23
2022-08-12T22:37:20.196Z,2.20
2022-08-12T22:46:34.996Z,2.17
2022-08-12T22:49:06.552Z,2.50
2022-08-12T22:52:00.025Z,2.30
2022-08-12T22:54:35.867Z,2.10
2022-08-12T22:57:04.645Z,2.00
2022-08-12T22:59:55.171Z,1.93
2022-08-12T23:02:29.027Z,2.13
2022-08-12T23:05:06.026Z,2.20
2022-08-12T23:08:04.371Z,2.10
2022-08-12T23:10:31.267Z,2.40
2022-08-12T23:13:18.591Z,2.20
2022-08-12T23:15:47.814Z,2.60
2022-08-12T23:18:23.635Z,2.53
2022-08-12T23:21:07.685Z,2.40
2022-08-12T23:24:09.300Z,2.40
2022-08-12T23:26:57.238Z,2.30
2022-08-12T23:29:42.907Z,2.73
2022-08-12T23:32:10.913Z,2.37
2022-08-12T23:34:37.732Z,2.53
2022-08-12T23:37:08.494Z,2.40
2022-08-12T23:40:14.951Z,2.03
2022-08-12T23:42:41.422Z,2.30
2022-08-12T23:45:31.509Z,2.30
2022-08-12T23:48:07.328Z,2.20
2022-08-12T23:50:35.082Z,2.20
2022-08-12T23:53:22.420Z,2.43
2022-08-12T23:55:49.957Z,2.40
2022-08-12T23:58:26.188Z,2.50
